sensor_id;sensor_type;location;lat;lon;timestamp;P1;durP1;ratioP1;P2;durP2;ratioP2
20421;SDS011;10370;53.102;18.034;2022-12-07T00:04:05;29.67;;;12.40;;
20421;SDS011;10370;53.102;18.034;2022-12-07T00:09:27;28.97;;;12.27;;
20421;SDS011;10370;53.102;18.034;2022-12-07T00:14:48;29.17;;;12.70;;
20421;SDS011;10370;53.102;18.034;2022-12-07T00:20:09;27.07;;;12.40;;
20421;SDS011;10370;53.102;18.034;2022-12-07T00:25:30;26.80;;;12.17;;
20421;SDS011;10370;53.102;18.034;2022-12-07T00:30:51;29.87;;;11.90;;
20421;SDS011;10370;53.102;18.034;2022-12-07T00:36:13;22.60;;;11.93;;
20421;SDS011;10370;53.102;18.034;2022-12-07T00:41:39;25.60;;;12.00;;
20421;SDS011;10370;53.102;18.034;2022-12-07T00:47:00;23.20;;;11.57;;
20421;SDS011;10370;53.102;18.034;2022-12-07T00:52:21;24.37;;;11.83;;
20421;SDS011;10370;53.102;18.034;2022-12-07T00:57:42;27.43;;;13.10;;
20421;SDS011;10370;53.102;18.034;2022-12-07T01:03:04;27.27;;;12.80;;
20421;SDS011;10370;53.102;18.034;2022-12-07T01:08:26;28.77;;;14.57;;
20421;SDS011;10370;53.102;18.034;2022-12-07T01:13:49;32.53;;;15.17;;
20421;SDS011;10370;53.102;18.034;2022-12-07T01:19:11;27.87;;;14.13;;
20421;SDS011;10370;53.102;18.034;2022-12-07T01:24:32;25.77;;;13.07;;
20421;SDS011;10370;53.102;18.034;2022-12-07T01:29:53;23.77;;;12.23;;
20421;SDS011;10370;53.102;18.034;2022-12-07T01:35:14;25.40;;;11.93;;
20421;SDS011;10370;53.102;18.034;2022-12-07T01:40:36;21.83;;;10.53;;
20421;SDS011;10370;53.102;18.034;2022-12-07T01:45:57;19.47;;;9.43;;
20421;SDS011;10370;53.102;18.034;2022-12-07T01:51:18;20.83;;;9.20;;
20421;SDS011;10370;53.102;18.034;2022-12-07T01:56:40;17.20;;;8.47;;
20421;SDS011;10370;53.102;18.034;2022-12-07T02:02:08;16.33;;;8.60;;
20421;SDS011;10370;53.102;18.034;2022-12-07T02:07:37;12.60;;;7.10;;
20421;SDS011;10370;53.102;18.034;2022-12-07T02:13:08;12.97;;;6.73;;
20421;SDS011;10370;53.102;18.034;2022-12-07T02:30:19;17.43;;;7.80;;
20421;SDS011;10370;53.102;18.034;2022-12-07T02:35:46;20.50;;;9.23;;
20421;SDS011;10370;53.102;18.034;2022-12-07T02:41:33;19.17;;;9.37;;
20421;SDS011;10370;53.102;18.034;2022-12-07T02:47:05;19.97;;;10.00;;
20421;SDS011;10370;53.102;18.034;2022-12-07T02:52:29;21.90;;;10.03;;
20421;SDS011;10370;53.102;18.034;2022-12-07T02:58:08;21.70;;;9.40;;
20421;SDS011;10370;53.102;18.034;2022-12-07T03:03:41;18.13;;;8.90;;
20421;SDS011;10370;53.102;18.034;2022-12-07T03:14:46;16.83;;;8.97;;
20421;SDS011;10370;53.102;18.034;2022-12-07T03:20:13;15.90;;;8.43;;
20421;SDS011;10370;53.102;18.034;2022-12-07T03:25:43;17.97;;;8.73;;
20421;SDS011;10370;53.102;18.034;2022-12-07T03:31:12;16.40;;;8.30;;
20421;SDS011;10370;53.102;18.034;2022-12-07T03:36:37;16.60;;;8.13;;
20421;SDS011;10370;53.102;18.034;2022-12-07T03:42:00;15.13;;;8.17;;
20421;SDS011;10370;53.102;18.034;2022-12-07T03:53:00;13.80;;;7.77;;
20421;SDS011;10370;53.102;18.034;2022-12-07T03:58:47;15.60;;;8.07;;
20421;SDS011;10370;53.102;18.034;2022-12-07T04:04:09;13.63;;;7.27;;
20421;SDS011;10370;53.102;18.034;2022-12-07T04:09:30;14.60;;;6.90;;
20421;SDS011;10370;53.102;18.034;2022-12-07T04:14:51;14.43;;;8.10;;
20421;SDS011;10370;53.102;18.034;2022-12-07T04:20:12;14.17;;;8.00;;
20421;SDS011;10370;53.102;18.034;2022-12-07T04:25:33;15.63;;;8.23;;
20421;SDS011;10370;53.102;18.034;2022-12-07T04:30:54;14.13;;;8.40;;
20421;SDS011;10370;53.102;18.034;2022-12-07T04:36:15;13.13;;;7.37;;
20421;SDS011;10370;53.102;18.034;2022-12-07T04:41:36;12.93;;;7.10;;
20421;SDS011;10370;53.102;18.034;2022-12-07T04:46:57;14.23;;;7.73;;
20421;SDS011;10370;53.102;18.034;2022-12-07T04:52:18;12.87;;;7.10;;
20421;SDS011;10370;53.102;18.034;2022-12-07T04:57:39;11.73;;;6.87;;
20421;SDS011;10370;53.102;18.034;2022-12-07T05:03:00;12.13;;;6.53;;
20421;SDS011;10370;53.102;18.034;2022-12-07T05:08:22;11.47;;;5.83;;
20421;SDS011;10370;53.102;18.034;2022-12-07T05:13:42;12.83;;;6.03;;
20421;SDS011;10370;53.102;18.034;2022-12-07T05:19:04;11.87;;;6.53;;
20421;SDS011;10370;53.102;18.034;2022-12-07T05:24:24;17.30;;;7.90;;
20421;SDS011;10370;53.102;18.034;2022-12-07T05:29:45;23.23;;;9.20;;
20421;SDS011;10370;53.102;18.034;2022-12-07T05:35:07;28.67;;;9.77;;
20421;SDS011;10370;53.102;18.034;2022-12-07T05:40:28;32.07;;;12.07;;
20421;SDS011;10370;53.102;18.034;2022-12-07T05:45:49;30.77;;;12.00;;
20421;SDS011;10370;53.102;18.034;2022-12-07T05:51:10;32.07;;;11.87;;
20421;SDS011;10370;53.102;18.034;2022-12-07T05:56:31;35.07;;;11.33;;
20421;SDS011;10370;53.102;18.034;2022-12-07T06:01:56;28.90;;;11.00;;
20421;SDS011;10370;53.102;18.034;2022-12-07T06:07:24;29.20;;;11.40;;
20421;SDS011;10370;53.102;18.034;2022-12-07T06:12:45;37.00;;;11.97;;
20421;SDS011;10370;53.102;18.034;2022-12-07T06:18:06;29.40;;;11.03;;
20421;SDS011;10370;53.102;18.034;2022-12-07T06:23:31;31.20;;;11.27;;
20421;SDS011;10370;53.102;18.034;2022-12-07T06:28:52;28.77;;;11.93;;
20421;SDS011;10370;53.102;18.034;2022-12-07T06:34:14;32.00;;;12.40;;
20421;SDS011;10370;53.102;18.034;2022-12-07T06:39:38;29.00;;;11.97;;
20421;SDS011;10370;53.102;18.034;2022-12-07T06:44:59;32.57;;;13.30;;
20421;SDS011;10370;53.102;18.034;2022-12-07T06:50:22;31.57;;;12.30;;
20421;SDS011;10370;53.102;18.034;2022-12-07T06:55:45;29.00;;;12.80;;
20421;SDS011;10370;53.102;18.034;2022-12-07T07:01:10;31.47;;;13.10;;
20421;SDS011;10370;53.102;18.034;2022-12-07T07:06:37;31.70;;;13.03;;
20421;SDS011;10370;53.102;18.034;2022-12-07T07:11:58;29.13;;;12.27;;
20421;SDS011;10370;53.102;18.034;2022-12-07T07:17:20;29.00;;;12.20;;
20421;SDS011;10370;53.102;18.034;2022-12-07T07:22:42;28.17;;;12.70;;
20421;SDS011;10370;53.102;18.034;2022-12-07T07:28:05;29.83;;;13.43;;
20421;SDS011;10370;53.102;18.034;2022-12-07T07:33:26;34.87;;;13.80;;
20421;SDS011;10370;53.102;18.034;2022-12-07T07:38:52;32.27;;;14.10;;
20421;SDS011;10370;53.102;18.034;2022-12-07T07:44:18;30.00;;;13.37;;
20421;SDS011;10370;53.102;18.034;2022-12-07T07:49:39;34.03;;;14.80;;
20421;SDS011;10370;53.102;18.034;2022-12-07T07:55:06;30.77;;;13.63;;
20421;SDS011;10370;53.102;18.034;2022-12-07T08:00:29;34.33;;;15.53;;
20421;SDS011;10370;53.102;18.034;2022-12-07T08:05:50;29.20;;;13.60;;
20421;SDS011;10370;53.102;18.034;2022-12-07T08:11:11;29.60;;;14.10;;
20421;SDS011;10370;53.102;18.034;2022-12-07T08:16:34;25.30;;;12.17;;
20421;SDS011;10370;53.102;18.034;2022-12-07T08:21:55;26.83;;;12.93;;
20421;SDS011;10370;53.102;18.034;2022-12-07T08:27:16;25.03;;;12.53;;
20421;SDS011;10370;53.102;18.034;2022-12-07T08:32:37;25.97;;;12.37;;
20421;SDS011;10370;53.102;18.034;2022-12-07T08:37:58;22.23;;;11.87;;
20421;SDS011;10370;53.102;18.034;2022-12-07T08:43:19;23.70;;;11.47;;
20421;SDS011;10370;53.102;18.034;2022-12-07T08:48:42;25.13;;;11.47;;
20421;SDS011;10370;53.102;18.034;2022-12-07T08:54:16;28.10;;;11.97;;
20421;SDS011;10370;53.102;18.034;2022-12-07T08:59:39;24.27;;;11.80;;
20421;SDS011;10370;53.102;18.034;2022-12-07T09:05:00;25.13;;;14.70;;
20421;SDS011;10370;53.102;18.034;2022-12-07T09:10:21;22.13;;;11.43;;
20421;SDS011;10370;53.102;18.034;2022-12-07T09:15:42;25.17;;;12.20;;
20421;SDS011;10370;53.102;18.034;2022-12-07T09:21:04;23.30;;;11.67;;
20421;SDS011;10370;53.102;18.034;2022-12-07T09:26:25;25.10;;;13.10;;
20421;SDS011;10370;53.102;18.034;2022-12-07T09:31:46;24.87;;;13.07;;
20421;SDS011;10370;53.102;18.034;2022-12-07T09:37:07;27.83;;;14.50;;
20421;SDS011;10370;53.102;18.034;2022-12-07T09:42:39;26.53;;;13.90;;
20421;SDS011;10370;53.102;18.034;2022-12-07T09:48:04;25.67;;;12.87;;
20421;SDS011;10370;53.102;18.034;2022-12-07T09:53:27;24.50;;;12.47;;
20421;SDS011;10370;53.102;18.034;2022-12-07T09:59:01;24.33;;;12.70;;
20421;SDS011;10370;53.102;18.034;2022-12-07T10:04:26;22.00;;;11.57;;
20421;SDS011;10370;53.102;18.034;2022-12-07T10:09:50;24.73;;;13.20;;
20421;SDS011;10370;53.102;18.034;2022-12-07T10:15:11;20.93;;;11.23;;
20421;SDS011;10370;53.102;18.034;2022-12-07T10:20:33;20.40;;;11.10;;
20421;SDS011;10370;53.102;18.034;2022-12-07T10:25:54;19.83;;;10.50;;
20421;SDS011;10370;53.102;18.034;2022-12-07T10:31:16;21.77;;;11.23;;
20421;SDS011;10370;53.102;18.034;2022-12-07T10:36:39;21.53;;;12.13;;
20421;SDS011;10370;53.102;18.034;2022-12-07T10:42:02;21.70;;;12.00;;
20421;SDS011;10370;53.102;18.034;2022-12-07T11:37:46;18.97;;;11.37;;
20421;SDS011;10370;53.102;18.034;2022-12-07T11:54:56;22.50;;;11.97;;
20421;SDS011;10370;53.102;18.034;2022-12-07T12:00:20;21.77;;;11.37;;
20421;SDS011;10370;53.102;18.034;2022-12-07T12:05:41;22.17;;;11.63;;
20421;SDS011;10370;53.102;18.034;2022-12-07T12:23:18;26.47;;;13.57;;
20421;SDS011;10370;53.102;18.034;2022-12-07T12:34:30;26.43;;;12.47;;
20421;SDS011;10370;53.102;18.034;2022-12-07T12:40:12;28.33;;;14.07;;
20421;SDS011;10370;53.102;18.034;2022-12-07T12:45:35;27.23;;;13.03;;
20421;SDS011;10370;53.102;18.034;2022-12-07T12:51:40;24.63;;;13.10;;
20421;SDS011;10370;53.102;18.034;2022-12-07T13:02:54;23.40;;;12.03;;
20421;SDS011;10370;53.102;18.034;2022-12-07T13:13:41;26.63;;;13.97;;
20421;SDS011;10370;53.102;18.034;2022-12-07T13:19:25;22.73;;;12.47;;
20421;SDS011;10370;53.102;18.034;2022-12-07T13:25:24;23.83;;;12.20;;
20421;SDS011;10370;53.102;18.034;2022-12-07T13:31:00;25.80;;;12.43;;
20421;SDS011;10370;53.102;18.034;2022-12-07T13:36:39;22.67;;;11.07;;
20421;SDS011;10370;53.102;18.034;2022-12-07T13:42:08;20.17;;;10.63;;
20421;SDS011;10370;53.102;18.034;2022-12-07T13:47:43;23.07;;;11.43;;
20421;SDS011;10370;53.102;18.034;2022-12-07T13:53:12;22.37;;;11.87;;
20421;SDS011;10370;53.102;18.034;2022-12-07T13:58:34;22.40;;;12.20;;
20421;SDS011;10370;53.102;18.034;2022-12-07T14:04:15;23.47;;;12.20;;
20421;SDS011;10370;53.102;18.034;2022-12-07T14:10:02;24.80;;;12.63;;
20421;SDS011;10370;53.102;18.034;2022-12-07T14:15:27;21.73;;;11.63;;
20421;SDS011;10370;53.102;18.034;2022-12-07T14:20:50;20.33;;;10.70;;
20421;SDS011;10370;53.102;18.034;2022-12-07T14:26:15;19.83;;;10.10;;
20421;SDS011;10370;53.102;18.034;2022-12-07T14:31:40;19.00;;;10.27;;
20421;SDS011;10370;53.102;18.034;2022-12-07T14:37:01;20.00;;;10.73;;
20421;SDS011;10370;53.102;18.034;2022-12-07T14:42:23;17.20;;;9.70;;
20421;SDS011;10370;53.102;18.034;2022-12-07T14:47:49;19.00;;;10.83;;
20421;SDS011;10370;53.102;18.034;2022-12-07T14:53:31;17.93;;;10.23;;
20421;SDS011;10370;53.102;18.034;2022-12-07T14:58:55;19.73;;;11.10;;
20421;SDS011;10370;53.102;18.034;2022-12-07T15:04:16;19.90;;;10.77;;
20421;SDS011;10370;53.102;18.034;2022-12-07T15:09:37;20.93;;;10.17;;
20421;SDS011;10370;53.102;18.034;2022-12-07T15:14:58;18.43;;;10.60;;
20421;SDS011;10370;53.102;18.034;2022-12-07T15:20:22;15.87;;;9.37;;
20421;SDS011;10370;53.102;18.034;2022-12-07T15:25:43;20.27;;;11.50;;
20421;SDS011;10370;53.102;18.034;2022-12-07T15:31:12;17.03;;;9.83;;
20421;SDS011;10370;53.102;18.034;2022-12-07T15:36:54;20.77;;;12.03;;
20421;SDS011;10370;53.102;18.034;2022-12-07T15:42:15;23.07;;;11.47;;
20421;SDS011;10370;53.102;18.034;2022-12-07T15:47:37;22.40;;;10.73;;
20421;SDS011;10370;53.102;18.034;2022-12-07T15:53:20;20.20;;;10.63;;
20421;SDS011;10370;53.102;18.034;2022-12-07T15:58:41;22.77;;;10.33;;
20421;SDS011;10370;53.102;18.034;2022-12-07T16:04:02;27.63;;;12.03;;
20421;SDS011;10370;53.102;18.034;2022-12-07T16:09:24;25.23;;;12.07;;
20421;SDS011;10370;53.102;18.034;2022-12-07T16:14:45;25.07;;;12.47;;
20421;SDS011;10370;53.102;18.034;2022-12-07T16:20:06;32.63;;;14.37;;
20421;SDS011;10370;53.102;18.034;2022-12-07T16:25:28;21.13;;;11.83;;
20421;SDS011;10370;53.102;18.034;2022-12-07T16:30:49;27.23;;;13.40;;
20421;SDS011;10370;53.102;18.034;2022-12-07T16:36:24;29.00;;;13.87;;
20421;SDS011;10370;53.102;18.034;2022-12-07T16:42:07;27.73;;;14.10;;
20421;SDS011;10370;53.102;18.034;2022-12-07T16:47:28;32.57;;;14.53;;
20421;SDS011;10370;53.102;18.034;2022-12-07T16:52:49;33.43;;;16.07;;
20421;SDS011;10370;53.102;18.034;2022-12-07T16:58:14;35.33;;;16.83;;
20421;SDS011;10370;53.102;18.034;2022-12-07T17:03:35;35.23;;;16.50;;
20421;SDS011;10370;53.102;18.034;2022-12-07T17:08:56;32.03;;;14.83;;
20421;SDS011;10370;53.102;18.034;2022-12-07T17:14:18;29.97;;;14.17;;
20421;SDS011;10370;53.102;18.034;2022-12-07T17:19:57;37.17;;;15.77;;
20421;SDS011;10370;53.102;18.034;2022-12-07T17:25:18;27.07;;;13.63;;
20421;SDS011;10370;53.102;18.034;2022-12-07T17:30:40;31.27;;;15.03;;
20421;SDS011;10370;53.102;18.034;2022-12-07T17:36:01;22.93;;;12.40;;
20421;SDS011;10370;53.102;18.034;2022-12-07T17:41:30;20.43;;;10.40;;
20421;SDS011;10370;53.102;18.034;2022-12-07T17:47:09;18.17;;;9.50;;
20421;SDS011;10370;53.102;18.034;2022-12-07T17:52:30;31.63;;;12.00;;
20421;SDS011;10370;53.102;18.034;2022-12-07T17:58:10;15.43;;;9.07;;
20421;SDS011;10370;53.102;18.034;2022-12-07T18:03:31;20.20;;;10.60;;
20421;SDS011;10370;53.102;18.034;2022-12-07T18:08:52;18.27;;;10.20;;
20421;SDS011;10370;53.102;18.034;2022-12-07T18:14:13;19.17;;;9.20;;
20421;SDS011;10370;53.102;18.034;2022-12-07T18:19:35;16.40;;;8.83;;
20421;SDS011;10370;53.102;18.034;2022-12-07T18:24:56;16.10;;;9.17;;
20421;SDS011;10370;53.102;18.034;2022-12-07T18:30:17;16.63;;;8.43;;
20421;SDS011;10370;53.102;18.034;2022-12-07T18:35:46;14.20;;;8.27;;
20421;SDS011;10370;53.102;18.034;2022-12-07T18:41:09;16.40;;;8.50;;
20421;SDS011;10370;53.102;18.034;2022-12-07T18:46:32;18.07;;;8.23;;
20421;SDS011;10370;53.102;18.034;2022-12-07T18:59:28;19.40;;;8.47;;
20421;SDS011;10370;53.102;18.034;2022-12-07T19:05:44;19.97;;;9.90;;
20421;SDS011;10370;53.102;18.034;2022-12-07T19:18:03;17.17;;;8.97;;
20421;SDS011;10370;53.102;18.034;2022-12-07T19:23:31;21.70;;;10.67;;
20421;SDS011;10370;53.102;18.034;2022-12-07T19:29:02;19.33;;;9.63;;
20421;SDS011;10370;53.102;18.034;2022-12-07T19:41:36;19.70;;;9.43;;
20421;SDS011;10370;53.102;18.034;2022-12-07T19:46:59;19.70;;;10.47;;
20421;SDS011;10370;53.102;18.034;2022-12-07T19:52:23;17.60;;;9.13;;
20421;SDS011;10370;53.102;18.034;2022-12-07T19:57:45;21.30;;;10.77;;
20421;SDS011;10370;53.102;18.034;2022-12-07T20:03:07;18.10;;;9.70;;
20421;SDS011;10370;53.102;18.034;2022-12-07T20:08:28;13.03;;;7.80;;
20421;SDS011;10370;53.102;18.034;2022-12-07T20:13:49;16.03;;;8.70;;
20421;SDS011;10370;53.102;18.034;2022-12-07T20:19:11;18.47;;;9.73;;
20421;SDS011;10370;53.102;18.034;2022-12-07T20:24:33;18.30;;;9.13;;
20421;SDS011;10370;53.102;18.034;2022-12-07T20:29:55;16.03;;;7.90;;
20421;SDS011;10370;53.102;18.034;2022-12-07T20:35:16;15.97;;;7.67;;
20421;SDS011;10370;53.102;18.034;2022-12-07T20:40:37;18.37;;;8.57;;
20421;SDS011;10370;53.102;18.034;2022-12-07T20:46:05;14.30;;;7.23;;
20421;SDS011;10370;53.102;18.034;2022-12-07T20:51:27;15.47;;;7.40;;
20421;SDS011;10370;53.102;18.034;2022-12-07T20:56:48;13.70;;;7.47;;
20421;SDS011;10370;53.102;18.034;2022-12-07T21:02:10;13.37;;;7.40;;
20421;SDS011;10370;53.102;18.034;2022-12-07T21:07:32;17.83;;;8.07;;
20421;SDS011;10370;53.102;18.034;2022-12-07T21:12:54;17.90;;;8.37;;
20421;SDS011;10370;53.102;18.034;2022-12-07T21:18:14;15.20;;;8.00;;
20421;SDS011;10370;53.102;18.034;2022-12-07T21:23:36;12.73;;;6.93;;
20421;SDS011;10370;53.102;18.034;2022-12-07T21:28:57;12.83;;;6.90;;
20421;SDS011;10370;53.102;18.034;2022-12-07T21:34:18;11.53;;;6.60;;
20421;SDS011;10370;53.102;18.034;2022-12-07T21:39:39;13.10;;;6.60;;
20421;SDS011;10370;53.102;18.034;2022-12-07T21:45:00;12.47;;;7.00;;
20421;SDS011;10370;53.102;18.034;2022-12-07T21:50:21;12.93;;;7.03;;
20421;SDS011;10370;53.102;18.034;2022-12-07T21:55:44;15.03;;;7.07;;
20421;SDS011;10370;53.102;18.034;2022-12-07T22:01:13;13.47;;;7.40;;
20421;SDS011;10370;53.102;18.034;2022-12-07T22:14:39;15.50;;;7.43;;
20421;SDS011;10370;53.102;18.034;2022-12-07T22:20:44;12.57;;;7.20;;
20421;SDS011;10370;53.102;18.034;2022-12-07T22:26:06;16.60;;;7.13;;
20421;SDS011;10370;53.102;18.034;2022-12-07T22:31:28;15.93;;;7.10;;
20421;SDS011;10370;53.102;18.034;2022-12-07T22:36:49;14.73;;;6.50;;
20421;SDS011;10370;53.102;18.034;2022-12-07T22:42:10;15.40;;;7.63;;
20421;SDS011;10370;53.102;18.034;2022-12-07T22:47:31;17.77;;;8.93;;
20421;SDS011;10370;53.102;18.034;2022-12-07T22:52:52;13.00;;;6.87;;
20421;SDS011;10370;53.102;18.034;2022-12-07T22:58:14;12.90;;;6.80;;
20421;SDS011;10370;53.102;18.034;2022-12-07T23:03:36;10.70;;;6.20;;
20421;SDS011;10370;53.102;18.034;2022-12-07T23:08:57;10.23;;;5.93;;
20421;SDS011;10370;53.102;18.034;2022-12-07T23:14:21;11.70;;;5.53;;
20421;SDS011;10370;53.102;18.034;2022-12-07T23:19:46;11.50;;;5.60;;
20421;SDS011;10370;53.102;18.034;2022-12-07T23:25:13;10.10;;;5.70;;
20421;SDS011;10370;53.102;18.034;2022-12-07T23:30:34;9.20;;;5.00;;
20421;SDS011;10370;53.102;18.034;2022-12-07T23:35:55;11.37;;;5.83;;
20421;SDS011;10370;53.102;18.034;2022-12-07T23:41:25;11.77;;;5.80;;
20421;SDS011;10370;53.102;18.034;2022-12-07T23:46:47;10.90;;;5.23;;
20421;SDS011;10370;53.102;18.034;2022-12-07T23:52:08;10.93;;;5.03;;
20421;SDS011;10370;53.102;18.034;2022-12-07T23:57:51;10.57;;;4.70;;
